sensor_id;sensor_type;location;lat;lon;timestamp;P1;durP1;ratioP1;P2;durP2;ratioP2
15764;SDS011;7983;50.744;7.086;2023-02-19T00:01:59;3.33;;;0.40;;
15764;SDS011;7983;50.744;7.086;2023-02-19T00:04:24;0.45;;;0.30;;
15764;SDS011;7983;50.744;7.086;2023-02-19T00:06:50;0.55;;;0.30;;
15764;SDS011;7983;50.744;7.086;2023-02-19T00:09:18;0.47;;;0.40;;
15764;SDS011;7983;50.744;7.086;2023-02-19T00:11:44;0.57;;;0.40;;
15764;SDS011;7983;50.744;7.086;2023-02-19T00:14:15;1.58;;;0.30;;
15764;SDS011;7983;50.744;7.086;2023-02-19T00:16:43;1.02;;;0.50;;
15764;SDS011;7983;50.744;7.086;2023-02-19T00:19:12;0.60;;;0.30;;
15764;SDS011;7983;50.744;7.086;2023-02-19T00:21:39;0.40;;;0.40;;
15764;SDS011;7983;50.744;7.086;2023-02-19T00:24:05;0.20;;;0.20;;
15764;SDS011;7983;50.744;7.086;2023-02-19T00:26:32;0.57;;;0.20;;
15764;SDS011;7983;50.744;7.086;2023-02-19T00:29:04;0.28;;;0.17;;
15764;SDS011;7983;50.744;7.086;2023-02-19T00:31:33;0.20;;;0.20;;
15764;SDS011;7983;50.744;7.086;2023-02-19T00:34:01;0.40;;;0.30;;
15764;SDS011;7983;50.744;7.086;2023-02-19T00:36:31;0.20;;;0.20;;
15764;SDS011;7983;50.744;7.086;2023-02-19T00:39:00;0.60;;;0.40;;
15764;SDS011;7983;50.744;7.086;2023-02-19T00:41:26;0.47;;;0.30;;
15764;SDS011;7983;50.744;7.086;2023-02-19T00:43:57;0.40;;;0.30;;
15764;SDS011;7983;50.744;7.086;2023-02-19T00:46:25;0.40;;;0.40;;
15764;SDS011;7983;50.744;7.086;2023-02-19T00:48:57;0.45;;;0.43;;
15764;SDS011;7983;50.744;7.086;2023-02-19T00:51:26;0.52;;;0.50;;
15764;SDS011;7983;50.744;7.086;2023-02-19T00:53:54;0.40;;;0.40;;
15764;SDS011;7983;50.744;7.086;2023-02-19T00:56:20;0.50;;;0.50;;
15764;SDS011;7983;50.744;7.086;2023-02-19T00:58:46;1.27;;;0.90;;
15764;SDS011;7983;50.744;7.086;2023-02-19T01:01:12;0.75;;;0.70;;
15764;SDS011;7983;50.744;7.086;2023-02-19T01:03:38;1.20;;;0.90;;
15764;SDS011;7983;50.744;7.086;2023-02-19T01:06:09;1.15;;;1.05;;
15764;SDS011;7983;50.744;7.086;2023-02-19T01:08:36;1.63;;;1.05;;
15764;SDS011;7983;50.744;7.086;2023-02-19T01:11:03;2.65;;;1.55;;
15764;SDS011;7983;50.744;7.086;2023-02-19T01:13:31;1.30;;;1.20;;
15764;SDS011;7983;50.744;7.086;2023-02-19T01:16:03;1.30;;;1.20;;
15764;SDS011;7983;50.744;7.086;2023-02-19T01:18:31;1.15;;;1.05;;
15764;SDS011;7983;50.744;7.086;2023-02-19T01:20:57;2.00;;;1.40;;
15764;SDS011;7983;50.744;7.086;2023-02-19T01:23:23;1.75;;;1.40;;
15764;SDS011;7983;50.744;7.086;2023-02-19T01:25:48;6.88;;;1.98;;
15764;SDS011;7983;50.744;7.086;2023-02-19T01:28:14;1.73;;;1.55;;
15764;SDS011;7983;50.744;7.086;2023-02-19T01:30:39;1.90;;;1.50;;
15764;SDS011;7983;50.744;7.086;2023-02-19T01:33:06;1.70;;;1.60;;
15764;SDS011;7983;50.744;7.086;2023-02-19T01:35:33;3.83;;;1.52;;
15764;SDS011;7983;50.744;7.086;2023-02-19T01:38:04;2.35;;;1.58;;
15764;SDS011;7983;50.744;7.086;2023-02-19T01:40:32;1.60;;;1.50;;
15764;SDS011;7983;50.744;7.086;2023-02-19T01:43:04;1.92;;;1.55;;
15764;SDS011;7983;50.744;7.086;2023-02-19T01:45:34;4.30;;;1.60;;
15764;SDS011;7983;50.744;7.086;2023-02-19T01:50:35;2.33;;;1.70;;
15764;SDS011;7983;50.744;7.086;2023-02-19T01:53:05;1.58;;;1.48;;
15764;SDS011;7983;50.744;7.086;2023-02-19T01:55:35;1.90;;;1.60;;
15764;SDS011;7983;50.744;7.086;2023-02-19T01:58:03;1.45;;;1.35;;
15764;SDS011;7983;50.744;7.086;2023-02-19T02:00:31;1.67;;;1.50;;
15764;SDS011;7983;50.744;7.086;2023-02-19T02:02:57;1.27;;;1.17;;
15764;SDS011;7983;50.744;7.086;2023-02-19T02:08:03;1.73;;;1.10;;
15764;SDS011;7983;50.744;7.086;2023-02-19T02:10:50;1.10;;;1.00;;
15764;SDS011;7983;50.744;7.086;2023-02-19T02:13:17;1.10;;;0.90;;
15764;SDS011;7983;50.744;7.086;2023-02-19T02:18:35;0.80;;;0.80;;
15764;SDS011;7983;50.744;7.086;2023-02-19T02:21:28;1.13;;;0.80;;
15764;SDS011;7983;50.744;7.086;2023-02-19T02:29:55;0.75;;;0.63;;
15764;SDS011;7983;50.744;7.086;2023-02-19T02:32:40;1.25;;;0.80;;
15764;SDS011;7983;50.744;7.086;2023-02-19T02:35:17;1.55;;;0.70;;
15764;SDS011;7983;50.744;7.086;2023-02-19T02:37:47;0.70;;;0.57;;
15764;SDS011;7983;50.744;7.086;2023-02-19T02:40:15;0.68;;;0.68;;
15764;SDS011;7983;50.744;7.086;2023-02-19T02:42:43;0.60;;;0.52;;
15764;SDS011;7983;50.744;7.086;2023-02-19T02:50:41;0.80;;;0.70;;
15764;SDS011;7983;50.744;7.086;2023-02-19T02:53:28;1.08;;;0.80;;
15764;SDS011;7983;50.744;7.086;2023-02-19T02:56:23;1.13;;;0.90;;
15764;SDS011;7983;50.744;7.086;2023-02-19T02:58:52;1.00;;;0.90;;
15764;SDS011;7983;50.744;7.086;2023-02-19T03:01:23;1.45;;;1.17;;
15764;SDS011;7983;50.744;7.086;2023-02-19T03:04:13;1.42;;;1.27;;
15764;SDS011;7983;50.744;7.086;2023-02-19T03:06:47;1.77;;;1.20;;
15764;SDS011;7983;50.744;7.086;2023-02-19T03:09:21;1.92;;;1.30;;
15764;SDS011;7983;50.744;7.086;2023-02-19T03:11:54;2.85;;;1.45;;
15764;SDS011;7983;50.744;7.086;2023-02-19T03:14:45;2.25;;;1.45;;
15764;SDS011;7983;50.744;7.086;2023-02-19T03:17:45;3.10;;;1.60;;
15764;SDS011;7983;50.744;7.086;2023-02-19T03:20:34;3.28;;;1.67;;
15764;SDS011;7983;50.744;7.086;2023-02-19T03:23:04;2.13;;;1.73;;
15764;SDS011;7983;50.744;7.086;2023-02-19T03:25:33;2.00;;;1.80;;
15764;SDS011;7983;50.744;7.086;2023-02-19T03:28:20;2.30;;;1.90;;
15764;SDS011;7983;50.744;7.086;2023-02-19T03:31:14;3.13;;;2.10;;
15764;SDS011;7983;50.744;7.086;2023-02-19T03:33:44;3.17;;;2.17;;
15764;SDS011;7983;50.744;7.086;2023-02-19T03:36:16;2.38;;;2.17;;
15764;SDS011;7983;50.744;7.086;2023-02-19T03:39:11;4.75;;;2.80;;
15764;SDS011;7983;50.744;7.086;2023-02-19T03:41:57;3.22;;;2.92;;
15764;SDS011;7983;50.744;7.086;2023-02-19T03:47:13;3.08;;;2.65;;
15764;SDS011;7983;50.744;7.086;2023-02-19T03:49:48;3.08;;;2.78;;
15764;SDS011;7983;50.744;7.086;2023-02-19T03:57:55;5.00;;;3.55;;
15764;SDS011;7983;50.744;7.086;2023-02-19T04:00:37;5.18;;;3.78;;
15764;SDS011;7983;50.744;7.086;2023-02-19T04:03:15;5.35;;;3.63;;
15764;SDS011;7983;50.744;7.086;2023-02-19T04:06:02;6.35;;;4.50;;
15764;SDS011;7983;50.744;7.086;2023-02-19T04:08:36;5.25;;;4.00;;
15764;SDS011;7983;50.744;7.086;2023-02-19T04:11:03;4.75;;;3.58;;
15764;SDS011;7983;50.744;7.086;2023-02-19T04:13:39;5.05;;;3.63;;
15764;SDS011;7983;50.744;7.086;2023-02-19T04:16:12;5.90;;;4.10;;
15764;SDS011;7983;50.744;7.086;2023-02-19T04:18:43;4.63;;;3.63;;
15764;SDS011;7983;50.744;7.086;2023-02-19T04:21:14;6.03;;;3.65;;
15764;SDS011;7983;50.744;7.086;2023-02-19T04:23:41;6.15;;;4.35;;
15764;SDS011;7983;50.744;7.086;2023-02-19T04:26:09;5.38;;;3.58;;
15764;SDS011;7983;50.744;7.086;2023-02-19T04:28:39;4.28;;;3.30;;
15764;SDS011;7983;50.744;7.086;2023-02-19T04:31:07;6.00;;;4.22;;
15764;SDS011;7983;50.744;7.086;2023-02-19T04:33:32;7.47;;;3.97;;
15764;SDS011;7983;50.744;7.086;2023-02-19T04:35:58;5.75;;;3.92;;
15764;SDS011;7983;50.744;7.086;2023-02-19T04:38:24;7.82;;;3.92;;
15764;SDS011;7983;50.744;7.086;2023-02-19T04:40:52;5.97;;;3.75;;
15764;SDS011;7983;50.744;7.086;2023-02-19T04:43:20;5.85;;;3.80;;
15764;SDS011;7983;50.744;7.086;2023-02-19T04:45:46;6.30;;;3.95;;
15764;SDS011;7983;50.744;7.086;2023-02-19T04:48:11;6.05;;;3.92;;
15764;SDS011;7983;50.744;7.086;2023-02-19T04:50:39;6.32;;;4.07;;
15764;SDS011;7983;50.744;7.086;2023-02-19T04:53:05;5.97;;;4.43;;
15764;SDS011;7983;50.744;7.086;2023-02-19T04:55:31;5.78;;;4.10;;
15764;SDS011;7983;50.744;7.086;2023-02-19T04:58:00;5.95;;;3.95;;
15764;SDS011;7983;50.744;7.086;2023-02-19T05:00:26;7.32;;;4.50;;
15764;SDS011;7983;50.744;7.086;2023-02-19T05:02:52;6.45;;;4.15;;
15764;SDS011;7983;50.744;7.086;2023-02-19T05:05:20;4.60;;;3.70;;
15764;SDS011;7983;50.744;7.086;2023-02-19T05:07:45;4.97;;;3.42;;
15764;SDS011;7983;50.744;7.086;2023-02-19T05:10:11;6.45;;;4.13;;
15764;SDS011;7983;50.744;7.086;2023-02-19T05:12:36;6.32;;;4.40;;
15764;SDS011;7983;50.744;7.086;2023-02-19T05:15:02;6.10;;;4.35;;
15764;SDS011;7983;50.744;7.086;2023-02-19T05:17:32;6.88;;;4.70;;
15764;SDS011;7983;50.744;7.086;2023-02-19T05:19:58;8.15;;;4.53;;
15764;SDS011;7983;50.744;7.086;2023-02-19T05:22:24;8.32;;;5.18;;
15764;SDS011;7983;50.744;7.086;2023-02-19T05:24:49;6.70;;;4.93;;
15764;SDS011;7983;50.744;7.086;2023-02-19T05:27:17;8.88;;;5.10;;
15764;SDS011;7983;50.744;7.086;2023-02-19T05:29:43;8.05;;;4.97;;
15764;SDS011;7983;50.744;7.086;2023-02-19T05:32:08;7.57;;;4.55;;
15764;SDS011;7983;50.744;7.086;2023-02-19T05:34:34;6.97;;;4.40;;
15764;SDS011;7983;50.744;7.086;2023-02-19T05:37:00;6.10;;;4.03;;
15764;SDS011;7983;50.744;7.086;2023-02-19T05:39:25;5.88;;;4.00;;
15764;SDS011;7983;50.744;7.086;2023-02-19T05:41:56;6.60;;;4.53;;
15764;SDS011;7983;50.744;7.086;2023-02-19T05:44:21;8.35;;;4.97;;
15764;SDS011;7983;50.744;7.086;2023-02-19T05:46:49;6.75;;;4.82;;
15764;SDS011;7983;50.744;7.086;2023-02-19T05:49:15;9.25;;;5.90;;
15764;SDS011;7983;50.744;7.086;2023-02-19T05:51:41;8.60;;;5.45;;
15764;SDS011;7983;50.744;7.086;2023-02-19T05:54:09;8.57;;;5.28;;
15764;SDS011;7983;50.744;7.086;2023-02-19T05:56:35;8.77;;;6.20;;
15764;SDS011;7983;50.744;7.086;2023-02-19T05:59:02;10.90;;;5.90;;
15764;SDS011;7983;50.744;7.086;2023-02-19T06:01:30;8.73;;;6.03;;
15764;SDS011;7983;50.744;7.086;2023-02-19T06:03:56;9.88;;;6.18;;
15764;SDS011;7983;50.744;7.086;2023-02-19T06:06:22;7.05;;;6.03;;
15764;SDS011;7983;50.744;7.086;2023-02-19T06:08:50;6.78;;;5.35;;
15764;SDS011;7983;50.744;7.086;2023-02-19T06:11:19;8.10;;;5.40;;
15764;SDS011;7983;50.744;7.086;2023-02-19T06:13:47;9.25;;;5.95;;
15764;SDS011;7983;50.744;7.086;2023-02-19T06:16:18;6.55;;;5.03;;
15764;SDS011;7983;50.744;7.086;2023-02-19T06:18:45;7.43;;;5.30;;
15764;SDS011;7983;50.744;7.086;2023-02-19T06:21:14;8.10;;;5.10;;
15764;SDS011;7983;50.744;7.086;2023-02-19T06:23:46;7.03;;;5.10;;
15764;SDS011;7983;50.744;7.086;2023-02-19T06:26:20;9.52;;;6.03;;
15764;SDS011;7983;50.744;7.086;2023-02-19T06:28:51;10.57;;;6.70;;
15764;SDS011;7983;50.744;7.086;2023-02-19T06:31:22;15.60;;;7.05;;
15764;SDS011;7983;50.744;7.086;2023-02-19T06:33:49;8.65;;;5.82;;
15764;SDS011;7983;50.744;7.086;2023-02-19T06:36:16;7.67;;;5.50;;
15764;SDS011;7983;50.744;7.086;2023-02-19T06:38:43;7.28;;;5.53;;
15764;SDS011;7983;50.744;7.086;2023-02-19T06:41:09;8.40;;;5.57;;
15764;SDS011;7983;50.744;7.086;2023-02-19T06:43:36;7.90;;;6.10;;
15764;SDS011;7983;50.744;7.086;2023-02-19T06:46:02;10.38;;;6.00;;
15764;SDS011;7983;50.744;7.086;2023-02-19T06:48:29;7.57;;;5.78;;
15764;SDS011;7983;50.744;7.086;2023-02-19T06:50:55;7.57;;;5.22;;
15764;SDS011;7983;50.744;7.086;2023-02-19T06:53:21;10.13;;;6.20;;
15764;SDS011;7983;50.744;7.086;2023-02-19T06:55:56;10.40;;;5.93;;
15764;SDS011;7983;50.744;7.086;2023-02-19T06:58:28;6.97;;;5.20;;
15764;SDS011;7983;50.744;7.086;2023-02-19T07:00:57;7.25;;;4.90;;
15764;SDS011;7983;50.744;7.086;2023-02-19T07:03:23;9.48;;;5.10;;
15764;SDS011;7983;50.744;7.086;2023-02-19T07:05:51;7.63;;;4.90;;
15764;SDS011;7983;50.744;7.086;2023-02-19T07:08:17;11.55;;;5.72;;
15764;SDS011;7983;50.744;7.086;2023-02-19T07:10:43;7.90;;;5.10;;
15764;SDS011;7983;50.744;7.086;2023-02-19T07:13:09;9.13;;;5.55;;
15764;SDS011;7983;50.744;7.086;2023-02-19T07:15:35;6.43;;;4.95;;
15764;SDS011;7983;50.744;7.086;2023-02-19T07:18:01;5.45;;;4.60;;
15764;SDS011;7983;50.744;7.086;2023-02-19T07:20:29;7.45;;;4.55;;
15764;SDS011;7983;50.744;7.086;2023-02-19T07:22:55;6.70;;;4.93;;
15764;SDS011;7983;50.744;7.086;2023-02-19T07:25:26;8.25;;;5.50;;
15764;SDS011;7983;50.744;7.086;2023-02-19T07:27:54;7.95;;;5.38;;
15764;SDS011;7983;50.744;7.086;2023-02-19T07:30:20;9.43;;;4.90;;
15764;SDS011;7983;50.744;7.086;2023-02-19T07:32:50;6.72;;;4.45;;
15764;SDS011;7983;50.744;7.086;2023-02-19T07:35:15;8.13;;;5.20;;
15764;SDS011;7983;50.744;7.086;2023-02-19T07:37:41;6.57;;;4.82;;
15764;SDS011;7983;50.744;7.086;2023-02-19T07:40:07;8.45;;;4.55;;
15764;SDS011;7983;50.744;7.086;2023-02-19T07:42:35;7.55;;;4.85;;
15764;SDS011;7983;50.744;7.086;2023-02-19T07:45:01;8.20;;;4.80;;
15764;SDS011;7983;50.744;7.086;2023-02-19T07:47:27;7.78;;;5.10;;
15764;SDS011;7983;50.744;7.086;2023-02-19T07:49:53;7.25;;;5.40;;
15764;SDS011;7983;50.744;7.086;2023-02-19T07:52:21;7.43;;;5.28;;
15764;SDS011;7983;50.744;7.086;2023-02-19T07:54:47;9.63;;;5.70;;
15764;SDS011;7983;50.744;7.086;2023-02-19T07:57:15;11.30;;;5.88;;
15764;SDS011;7983;50.744;7.086;2023-02-19T07:59:40;8.63;;;5.10;;
15764;SDS011;7983;50.744;7.086;2023-02-19T08:02:15;9.65;;;5.78;;
15764;SDS011;7983;50.744;7.086;2023-02-19T08:05:03;9.50;;;5.40;;
15764;SDS011;7983;50.744;7.086;2023-02-19T08:07:33;9.70;;;6.17;;
15764;SDS011;7983;50.744;7.086;2023-02-19T08:10:04;8.27;;;6.20;;
15764;SDS011;7983;50.744;7.086;2023-02-19T08:12:55;10.82;;;5.00;;
15764;SDS011;7983;50.744;7.086;2023-02-19T08:15:42;9.23;;;5.50;;
15764;SDS011;7983;50.744;7.086;2023-02-19T08:18:10;6.57;;;4.97;;
15764;SDS011;7983;50.744;7.086;2023-02-19T08:20:38;11.07;;;5.75;;
15764;SDS011;7983;50.744;7.086;2023-02-19T08:23:06;10.48;;;5.65;;
15764;SDS011;7983;50.744;7.086;2023-02-19T08:25:32;8.93;;;5.85;;
15764;SDS011;7983;50.744;7.086;2023-02-19T08:28:00;7.30;;;4.70;;
15764;SDS011;7983;50.744;7.086;2023-02-19T08:30:26;8.07;;;4.72;;
15764;SDS011;7983;50.744;7.086;2023-02-19T08:32:53;7.85;;;4.88;;
15764;SDS011;7983;50.744;7.086;2023-02-19T08:35:19;8.02;;;4.72;;
15764;SDS011;7983;50.744;7.086;2023-02-19T08:37:47;6.68;;;4.35;;
15764;SDS011;7983;50.744;7.086;2023-02-19T08:40:15;7.22;;;5.20;;
15764;SDS011;7983;50.744;7.086;2023-02-19T08:42:43;8.27;;;5.35;;
15764;SDS011;7983;50.744;7.086;2023-02-19T08:45:09;8.93;;;5.22;;
15764;SDS011;7983;50.744;7.086;2023-02-19T08:47:34;8.75;;;5.28;;
15764;SDS011;7983;50.744;7.086;2023-02-19T08:50:06;9.40;;;5.60;;
15764;SDS011;7983;50.744;7.086;2023-02-19T08:52:32;6.70;;;5.20;;
15764;SDS011;7983;50.744;7.086;2023-02-19T08:54:59;7.82;;;5.70;;
15764;SDS011;7983;50.744;7.086;2023-02-19T08:57:28;10.05;;;5.45;;
15764;SDS011;7983;50.744;7.086;2023-02-19T08:59:54;10.13;;;5.75;;
15764;SDS011;7983;50.744;7.086;2023-02-19T09:02:23;8.93;;;5.47;;
15764;SDS011;7983;50.744;7.086;2023-02-19T09:04:54;9.63;;;5.53;;
15764;SDS011;7983;50.744;7.086;2023-02-19T09:07:19;8.23;;;5.07;;
15764;SDS011;7983;50.744;7.086;2023-02-19T09:09:45;9.43;;;5.18;;
15764;SDS011;7983;50.744;7.086;2023-02-19T09:12:11;10.90;;;5.93;;
15764;SDS011;7983;50.744;7.086;2023-02-19T09:14:37;10.02;;;5.50;;
15764;SDS011;7983;50.744;7.086;2023-02-19T09:17:06;9.50;;;6.30;;
15764;SDS011;7983;50.744;7.086;2023-02-19T09:19:32;8.65;;;5.47;;
15764;SDS011;7983;50.744;7.086;2023-02-19T09:21:58;13.98;;;6.65;;
15764;SDS011;7983;50.744;7.086;2023-02-19T09:24:24;10.80;;;6.10;;
15764;SDS011;7983;50.744;7.086;2023-02-19T09:26:50;10.18;;;6.00;;
15764;SDS011;7983;50.744;7.086;2023-02-19T09:29:17;11.48;;;6.35;;
15764;SDS011;7983;50.744;7.086;2023-02-19T09:31:43;6.85;;;5.22;;
15764;SDS011;7983;50.744;7.086;2023-02-19T09:34:09;7.15;;;4.68;;
15764;SDS011;7983;50.744;7.086;2023-02-19T09:36:38;9.65;;;5.85;;
15764;SDS011;7983;50.744;7.086;2023-02-19T09:39:05;11.73;;;5.82;;
15764;SDS011;7983;50.744;7.086;2023-02-19T09:41:33;7.43;;;5.55;;
15764;SDS011;7983;50.744;7.086;2023-02-19T09:44:00;9.10;;;5.57;;
15764;SDS011;7983;50.744;7.086;2023-02-19T09:46:35;8.38;;;5.47;;
15764;SDS011;7983;50.744;7.086;2023-02-19T09:49:10;10.20;;;5.93;;
15764;SDS011;7983;50.744;7.086;2023-02-19T09:51:43;12.50;;;6.65;;
15764;SDS011;7983;50.744;7.086;2023-02-19T09:54:33;8.23;;;5.57;;
15764;SDS011;7983;50.744;7.086;2023-02-19T09:57:01;9.93;;;5.80;;
15764;SDS011;7983;50.744;7.086;2023-02-19T10:00:29;12.55;;;6.22;;
15764;SDS011;7983;50.744;7.086;2023-02-19T10:02:29;9.68;;;4.85;;
15764;SDS011;7983;50.744;7.086;2023-02-19T10:04:55;10.35;;;6.60;;
15764;SDS011;7983;50.744;7.086;2023-02-19T10:07:40;8.73;;;5.50;;
15764;SDS011;7983;50.744;7.086;2023-02-19T10:12:37;10.20;;;5.97;;
15764;SDS011;7983;50.744;7.086;2023-02-19T10:17:36;9.38;;;5.75;;
15764;SDS011;7983;50.744;7.086;2023-02-19T10:20:04;8.38;;;5.70;;
15764;SDS011;7983;50.744;7.086;2023-02-19T10:22:32;9.02;;;5.70;;
15764;SDS011;7983;50.744;7.086;2023-02-19T10:25:01;12.63;;;6.00;;
15764;SDS011;7983;50.744;7.086;2023-02-19T10:27:30;13.40;;;6.20;;
15764;SDS011;7983;50.744;7.086;2023-02-19T10:29:56;11.27;;;6.07;;
15764;SDS011;7983;50.744;7.086;2023-02-19T10:32:24;9.88;;;5.80;;
15764;SDS011;7983;50.744;7.086;2023-02-19T10:35:15;8.55;;;6.03;;
15764;SDS011;7983;50.744;7.086;2023-02-19T10:37:43;11.15;;;5.85;;
15764;SDS011;7983;50.744;7.086;2023-02-19T10:43:00;7.53;;;5.50;;
15764;SDS011;7983;50.744;7.086;2023-02-19T10:45:34;6.95;;;5.22;;
15764;SDS011;7983;50.744;7.086;2023-02-19T10:48:20;8.60;;;4.80;;
15764;SDS011;7983;50.744;7.086;2023-02-19T10:50:50;8.70;;;4.53;;
15764;SDS011;7983;50.744;7.086;2023-02-19T10:53:22;6.25;;;4.40;;
15764;SDS011;7983;50.744;7.086;2023-02-19T10:56:10;7.28;;;3.70;;
15764;SDS011;7983;50.744;7.086;2023-02-19T10:58:46;7.40;;;4.00;;
15764;SDS011;7983;50.744;7.086;2023-02-19T11:01:21;7.65;;;3.70;;
15764;SDS011;7983;50.744;7.086;2023-02-19T11:03:50;6.45;;;4.07;;
15764;SDS011;7983;50.744;7.086;2023-02-19T11:06:38;5.10;;;3.47;;
15764;SDS011;7983;50.744;7.086;2023-02-19T11:09:04;7.18;;;3.70;;
15764;SDS011;7983;50.744;7.086;2023-02-19T11:11:48;7.00;;;3.70;;
15764;SDS011;7983;50.744;7.086;2023-02-19T11:14:17;6.07;;;3.75;;
15764;SDS011;7983;50.744;7.086;2023-02-19T11:19:23;5.20;;;3.90;;
15764;SDS011;7983;50.744;7.086;2023-02-19T11:21:55;8.25;;;3.67;;
15764;SDS011;7983;50.744;7.086;2023-02-19T11:24:32;6.07;;;4.13;;
15764;SDS011;7983;50.744;7.086;2023-02-19T11:27:03;6.45;;;4.53;;
15764;SDS011;7983;50.744;7.086;2023-02-19T11:29:30;6.47;;;3.83;;
15764;SDS011;7983;50.744;7.086;2023-02-19T11:37:55;4.90;;;3.38;;
15764;SDS011;7983;50.744;7.086;2023-02-19T11:40:31;5.63;;;3.30;;
15764;SDS011;7983;50.744;7.086;2023-02-19T11:46:05;4.70;;;3.00;;
15764;SDS011;7983;50.744;7.086;2023-02-19T11:56:41;5.13;;;3.25;;
15764;SDS011;7983;50.744;7.086;2023-02-19T11:59:20;4.30;;;3.13;;
15764;SDS011;7983;50.744;7.086;2023-02-19T12:07:57;6.32;;;2.90;;
15764;SDS011;7983;50.744;7.086;2023-02-19T12:21:21;4.07;;;2.72;;
15764;SDS011;7983;50.744;7.086;2023-02-19T12:26:54;4.97;;;3.08;;
15764;SDS011;7983;50.744;7.086;2023-02-19T12:43:14;6.97;;;3.80;;
15764;SDS011;7983;50.744;7.086;2023-02-19T12:45:46;4.63;;;3.40;;
15764;SDS011;7983;50.744;7.086;2023-02-19T12:50:58;4.78;;;3.30;;
15764;SDS011;7983;50.744;7.086;2023-02-19T12:53:34;4.97;;;3.17;;
15764;SDS011;7983;50.744;7.086;2023-02-19T12:56:18;5.13;;;2.92;;
15764;SDS011;7983;50.744;7.086;2023-02-19T12:58:52;5.50;;;3.08;;
15764;SDS011;7983;50.744;7.086;2023-02-19T13:01:22;3.95;;;3.22;;
15764;SDS011;7983;50.744;7.086;2023-02-19T13:07:00;6.18;;;2.90;;
15764;SDS011;7983;50.744;7.086;2023-02-19T13:09:35;3.00;;;2.67;;
15764;SDS011;7983;50.744;7.086;2023-02-19T13:14:42;3.75;;;3.20;;
15764;SDS011;7983;50.744;7.086;2023-02-19T13:17:33;4.22;;;3.25;;
15764;SDS011;7983;50.744;7.086;2023-02-19T13:31:32;7.22;;;3.90;;
15764;SDS011;7983;50.744;7.086;2023-02-19T13:37:37;3.42;;;2.88;;
15764;SDS011;7983;50.744;7.086;2023-02-19T13:40:16;4.38;;;2.85;;
15764;SDS011;7983;50.744;7.086;2023-02-19T13:42:57;4.72;;;2.70;;
15764;SDS011;7983;50.744;7.086;2023-02-19T14:07:36;6.38;;;3.85;;
15764;SDS011;7983;50.744;7.086;2023-02-19T14:10:03;5.43;;;3.63;;
15764;SDS011;7983;50.744;7.086;2023-02-19T14:12:33;5.05;;;3.95;;
15764;SDS011;7983;50.744;7.086;2023-02-19T14:21:21;4.25;;;2.85;;
15764;SDS011;7983;50.744;7.086;2023-02-19T14:23:54;4.00;;;2.92;;
15764;SDS011;7983;50.744;7.086;2023-02-19T14:26:22;4.28;;;3.10;;
15764;SDS011;7983;50.744;7.086;2023-02-19T14:28:49;4.35;;;3.42;;
15764;SDS011;7983;50.744;7.086;2023-02-19T14:31:24;4.22;;;3.22;;
15764;SDS011;7983;50.744;7.086;2023-02-19T14:33:56;4.80;;;3.45;;
15764;SDS011;7983;50.744;7.086;2023-02-19T14:36:33;4.38;;;3.30;;
15764;SDS011;7983;50.744;7.086;2023-02-19T14:39:04;4.88;;;3.53;;
15764;SDS011;7983;50.744;7.086;2023-02-19T14:41:36;4.13;;;3.05;;
15764;SDS011;7983;50.744;7.086;2023-02-19T14:44:05;4.10;;;3.17;;
15764;SDS011;7983;50.744;7.086;2023-02-19T14:46:56;4.28;;;3.08;;
15764;SDS011;7983;50.744;7.086;2023-02-19T14:51:57;4.30;;;3.00;;
15764;SDS011;7983;50.744;7.086;2023-02-19T14:54:34;4.10;;;2.90;;
15764;SDS011;7983;50.744;7.086;2023-02-19T14:57:21;3.67;;;2.95;;
15764;SDS011;7983;50.744;7.086;2023-02-19T15:02:25;4.25;;;3.58;;
15764;SDS011;7983;50.744;7.086;2023-02-19T15:04:56;4.68;;;3.78;;
15764;SDS011;7983;50.744;7.086;2023-02-19T15:07:29;5.97;;;4.10;;
15764;SDS011;7983;50.744;7.086;2023-02-19T15:10:00;5.45;;;3.67;;
15764;SDS011;7983;50.744;7.086;2023-02-19T15:12:31;5.38;;;4.00;;
15764;SDS011;7983;50.744;7.086;2023-02-19T15:15:01;3.88;;;3.50;;
15764;SDS011;7983;50.744;7.086;2023-02-19T15:17:29;4.85;;;3.63;;
15764;SDS011;7983;50.744;7.086;2023-02-19T15:19:58;4.97;;;3.78;;
15764;SDS011;7983;50.744;7.086;2023-02-19T15:22:29;5.95;;;3.90;;
15764;SDS011;7983;50.744;7.086;2023-02-19T15:25:02;5.75;;;3.50;;
15764;SDS011;7983;50.744;7.086;2023-02-19T15:27:29;5.40;;;3.47;;
15764;SDS011;7983;50.744;7.086;2023-02-19T15:29:57;3.92;;;3.40;;
15764;SDS011;7983;50.744;7.086;2023-02-19T15:32:24;3.95;;;3.45;;
15764;SDS011;7983;50.744;7.086;2023-02-19T15:34:58;5.40;;;3.65;;
15764;SDS011;7983;50.744;7.086;2023-02-19T15:37:31;6.60;;;4.45;;
15764;SDS011;7983;50.744;7.086;2023-02-19T15:40:00;4.95;;;3.85;;
15764;SDS011;7983;50.744;7.086;2023-02-19T15:42:31;4.47;;;3.63;;
15764;SDS011;7983;50.744;7.086;2023-02-19T15:48:01;5.53;;;4.15;;
15764;SDS011;7983;50.744;7.086;2023-02-19T15:50:38;4.93;;;3.90;;
15764;SDS011;7983;50.744;7.086;2023-02-19T15:53:18;5.15;;;3.92;;
15764;SDS011;7983;50.744;7.086;2023-02-19T15:55:46;5.22;;;3.72;;
15764;SDS011;7983;50.744;7.086;2023-02-19T16:03:49;5.95;;;3.88;;
15764;SDS011;7983;50.744;7.086;2023-02-19T16:06:17;5.35;;;4.32;;
15764;SDS011;7983;50.744;7.086;2023-02-19T16:08:45;6.75;;;4.15;;
15764;SDS011;7983;50.744;7.086;2023-02-19T16:14:37;6.55;;;3.97;;
15764;SDS011;7983;50.744;7.086;2023-02-19T16:17:11;6.85;;;3.92;;
15764;SDS011;7983;50.744;7.086;2023-02-19T16:19:46;5.38;;;3.95;;
15764;SDS011;7983;50.744;7.086;2023-02-19T16:22:12;6.25;;;3.97;;
15764;SDS011;7983;50.744;7.086;2023-02-19T16:24:46;5.60;;;3.90;;
15764;SDS011;7983;50.744;7.086;2023-02-19T16:27:31;6.97;;;3.97;;
15764;SDS011;7983;50.744;7.086;2023-02-19T16:30:01;5.95;;;3.78;;
15764;SDS011;7983;50.744;7.086;2023-02-19T16:32:33;4.13;;;3.40;;
15764;SDS011;7983;50.744;7.086;2023-02-19T16:35:04;6.70;;;4.00;;
15764;SDS011;7983;50.744;7.086;2023-02-19T16:37:57;6.32;;;4.80;;
15764;SDS011;7983;50.744;7.086;2023-02-19T16:45:15;5.10;;;3.80;;
15764;SDS011;7983;50.744;7.086;2023-02-19T16:47:42;5.88;;;3.67;;
15764;SDS011;7983;50.744;7.086;2023-02-19T16:50:16;8.57;;;4.25;;
15764;SDS011;7983;50.744;7.086;2023-02-19T16:52:58;5.70;;;4.38;;
15764;SDS011;7983;50.744;7.086;2023-02-19T16:55:28;5.28;;;4.13;;
15764;SDS011;7983;50.744;7.086;2023-02-19T16:57:56;6.60;;;4.63;;
15764;SDS011;7983;50.744;7.086;2023-02-19T17:00:27;7.47;;;4.90;;
15764;SDS011;7983;50.744;7.086;2023-02-19T17:02:58;6.07;;;4.70;;
15764;SDS011;7983;50.744;7.086;2023-02-19T17:05:32;7.60;;;4.95;;
15764;SDS011;7983;50.744;7.086;2023-02-19T17:07:59;7.80;;;4.90;;
15764;SDS011;7983;50.744;7.086;2023-02-19T17:10:26;5.95;;;4.43;;
15764;SDS011;7983;50.744;7.086;2023-02-19T17:12:52;7.10;;;4.97;;
15764;SDS011;7983;50.744;7.086;2023-02-19T17:15:19;6.45;;;4.65;;
15764;SDS011;7983;50.744;7.086;2023-02-19T17:17:47;7.07;;;5.07;;
15764;SDS011;7983;50.744;7.086;2023-02-19T17:20:24;5.85;;;5.20;;
15764;SDS011;7983;50.744;7.086;2023-02-19T17:22:53;6.82;;;5.57;;
15764;SDS011;7983;50.744;7.086;2023-02-19T17:25:25;5.93;;;5.20;;
15764;SDS011;7983;50.744;7.086;2023-02-19T17:27:51;7.07;;;5.63;;
15764;SDS011;7983;50.744;7.086;2023-02-19T17:30:23;7.35;;;5.90;;
15764;SDS011;7983;50.744;7.086;2023-02-19T17:32:54;6.93;;;5.50;;
15764;SDS011;7983;50.744;7.086;2023-02-19T17:35:20;7.75;;;5.50;;
15764;SDS011;7983;50.744;7.086;2023-02-19T17:37:47;8.43;;;5.85;;
15764;SDS011;7983;50.744;7.086;2023-02-19T17:42:53;7.72;;;6.00;;
15764;SDS011;7983;50.744;7.086;2023-02-19T17:45:22;7.65;;;6.00;;
15764;SDS011;7983;50.744;7.086;2023-02-19T17:47:50;6.90;;;5.78;;
15764;SDS011;7983;50.744;7.086;2023-02-19T17:50:18;6.15;;;5.20;;
15764;SDS011;7983;50.744;7.086;2023-02-19T17:52:49;8.02;;;5.85;;
15764;SDS011;7983;50.744;7.086;2023-02-19T17:55:15;6.82;;;5.80;;
15764;SDS011;7983;50.744;7.086;2023-02-19T17:57:49;8.30;;;6.03;;
15764;SDS011;7983;50.744;7.086;2023-02-19T18:00:17;7.15;;;5.30;;
15764;SDS011;7983;50.744;7.086;2023-02-19T18:02:45;6.95;;;5.13;;
15764;SDS011;7983;50.744;7.086;2023-02-19T18:05:11;6.82;;;5.40;;
15764;SDS011;7983;50.744;7.086;2023-02-19T18:07:37;6.13;;;5.53;;